sensor_id;sensor_type;location;lat;lon;timestamp;temperature;humidity
54461;DHT22;40371;49.414;11.010;2023-04-07T00:00:17;2.90;99.90
54461;DHT22;40371;49.414;11.010;2023-04-07T00:02:43;2.80;99.90
54461;DHT22;40371;49.414;11.010;2023-04-07T00:05:09;3.10;99.90
54461;DHT22;40371;49.414;11.010;2023-04-07T00:07:34;3.30;99.90
54461;DHT22;40371;49.414;11.010;2023-04-07T00:10:00;3.40;99.90
54461;DHT22;40371;49.414;11.010;2023-04-07T00:12:26;3.40;99.90
54461;DHT22;40371;49.414;11.010;2023-04-07T00:14:52;3.20;99.90
54461;DHT22;40371;49.414;11.010;2023-04-07T00:17:17;3.40;99.90
54461;DHT22;40371;49.414;11.010;2023-04-07T00:19:43;3.50;99.90
54461;DHT22;40371;49.414;11.010;2023-04-07T00:22:08;3.40;99.90
54461;DHT22;40371;49.414;11.010;2023-04-07T00:24:34;3.50;99.90
54461;DHT22;40371;49.414;11.010;2023-04-07T00:27:00;3.20;99.90
54461;DHT22;40371;49.414;11.010;2023-04-07T00:29:26;3.20;99.90
54461;DHT22;40371;49.414;11.010;2023-04-07T00:31:52;3.40;99.90
54461;DHT22;40371;49.414;11.010;2023-04-07T00:34:17;3.40;99.90
54461;DHT22;40371;49.414;11.010;2023-04-07T00:36:43;3.40;99.90
54461;DHT22;40371;49.414;11.010;2023-04-07T00:39:09;3.30;99.90
54461;DHT22;40371;49.414;11.010;2023-04-07T00:41:34;3.30;99.90
54461;DHT22;40371;49.414;11.010;2023-04-07T00:44:00;3.30;99.90
54461;DHT22;40371;49.414;11.010;2023-04-07T00:46:27;3.30;99.90
54461;DHT22;40371;49.414;11.010;2023-04-07T00:48:52;3.50;99.90
54461;DHT22;40371;49.414;11.010;2023-04-07T00:51:20;3.20;99.90
54461;DHT22;40371;49.414;11.010;2023-04-07T00:53:47;2.80;99.90
54461;DHT22;40371;49.414;11.010;2023-04-07T00:56:13;2.50;99.90
54461;DHT22;40371;49.414;11.010;2023-04-07T00:58:39;2.40;99.90
54461;DHT22;40371;49.414;11.010;2023-04-07T01:01:14;2.70;99.90
54461;DHT22;40371;49.414;11.010;2023-04-07T01:06:14;3.50;99.90
54461;DHT22;40371;49.414;11.010;2023-04-07T01:09:02;3.50;99.90
54461;DHT22;40371;49.414;11.010;2023-04-07T01:12:03;3.60;99.90
54461;DHT22;40371;49.414;11.010;2023-04-07T01:14:34;3.60;99.90
54461;DHT22;40371;49.414;11.010;2023-04-07T01:17:16;3.40;99.90
54461;DHT22;40371;49.414;11.010;2023-04-07T01:20:02;3.40;99.90
54461;DHT22;40371;49.414;11.010;2023-04-07T01:22:56;3.20;99.90
54461;DHT22;40371;49.414;11.010;2023-04-07T01:25:37;2.90;99.90
54461;DHT22;40371;49.414;11.010;2023-04-07T01:28:14;3.50;99.90
54461;DHT22;40371;49.414;11.010;2023-04-07T01:30:46;3.60;99.90
54461;DHT22;40371;49.414;11.010;2023-04-07T01:33:13;3.70;99.90
54461;DHT22;40371;49.414;11.010;2023-04-07T01:35:40;3.60;99.90
54461;DHT22;40371;49.414;11.010;2023-04-07T01:38:08;3.30;99.90
54461;DHT22;40371;49.414;11.010;2023-04-07T01:40:35;2.90;99.90
54461;DHT22;40371;49.414;11.010;2023-04-07T01:43:01;3.30;99.90
54461;DHT22;40371;49.414;11.010;2023-04-07T01:45:28;3.50;99.90
54461;DHT22;40371;49.414;11.010;2023-04-07T01:47:55;3.60;99.90
54461;DHT22;40371;49.414;11.010;2023-04-07T01:50:21;3.50;99.90
54461;DHT22;40371;49.414;11.010;2023-04-07T01:52:47;3.40;99.90
54461;DHT22;40371;49.414;11.010;2023-04-07T01:55:13;3.40;99.90
54461;DHT22;40371;49.414;11.010;2023-04-07T01:57:48;3.30;99.90
54461;DHT22;40371;49.414;11.010;2023-04-07T02:00:18;3.30;99.90
54461;DHT22;40371;49.414;11.010;2023-04-07T02:02:53;3.60;99.90
54461;DHT22;40371;49.414;11.010;2023-04-07T02:05:20;3.40;99.90
54461;DHT22;40371;49.414;11.010;2023-04-07T02:07:54;2.90;99.90
54461;DHT22;40371;49.414;11.010;2023-04-07T02:10:24;2.60;99.90
54461;DHT22;40371;49.414;11.010;2023-04-07T02:12:53;2.70;99.90
54461;DHT22;40371;49.414;11.010;2023-04-07T02:15:21;3.10;99.90
54461;DHT22;40371;49.414;11.010;2023-04-07T02:17:50;3.30;99.90
54461;DHT22;40371;49.414;11.010;2023-04-07T02:20:17;3.40;99.90
54461;DHT22;40371;49.414;11.010;2023-04-07T02:22:44;3.30;99.90
54461;DHT22;40371;49.414;11.010;2023-04-07T02:25:25;3.10;99.90
54461;DHT22;40371;49.414;11.010;2023-04-07T02:27:53;3.20;99.90
54461;DHT22;40371;49.414;11.010;2023-04-07T02:30:19;3.30;99.90
54461;DHT22;40371;49.414;11.010;2023-04-07T02:32:45;2.80;99.90
54461;DHT22;40371;49.414;11.010;2023-04-07T02:35:11;2.80;99.90
54461;DHT22;40371;49.414;11.010;2023-04-07T02:37:40;2.80;99.90
54461;DHT22;40371;49.414;11.010;2023-04-07T02:40:06;2.80;99.90
54461;DHT22;40371;49.414;11.010;2023-04-07T02:42:32;2.70;99.90
54461;DHT22;40371;49.414;11.010;2023-04-07T02:44:57;2.70;99.90
54461;DHT22;40371;49.414;11.010;2023-04-07T02:47:23;3.00;99.90
54461;DHT22;40371;49.414;11.010;2023-04-07T02:49:49;3.20;99.90
54461;DHT22;40371;49.414;11.010;2023-04-07T02:52:15;3.30;99.90
54461;DHT22;40371;49.414;11.010;2023-04-07T02:54:41;3.40;99.90
54461;DHT22;40371;49.414;11.010;2023-04-07T02:57:08;3.60;99.90
54461;DHT22;40371;49.414;11.010;2023-04-07T02:59:34;3.10;99.90
54461;DHT22;40371;49.414;11.010;2023-04-07T03:02:00;3.20;99.90
54461;DHT22;40371;49.414;11.010;2023-04-07T03:04:26;3.10;99.90
54461;DHT22;40371;49.414;11.010;2023-04-07T03:06:52;3.10;99.90
54461;DHT22;40371;49.414;11.010;2023-04-07T03:09:19;3.30;99.90
54461;DHT22;40371;49.414;11.010;2023-04-07T03:11:44;3.40;99.90
54461;DHT22;40371;49.414;11.010;2023-04-07T03:14:10;3.50;99.90
54461;DHT22;40371;49.414;11.010;2023-04-07T03:16:43;3.20;99.90
54461;DHT22;40371;49.414;11.010;2023-04-07T03:19:11;3.00;99.90
54461;DHT22;40371;49.414;11.010;2023-04-07T03:21:41;3.00;99.90
54461;DHT22;40371;49.414;11.010;2023-04-07T03:24:08;3.00;99.90
54461;DHT22;40371;49.414;11.010;2023-04-07T03:26:34;3.50;99.90
54461;DHT22;40371;49.414;11.010;2023-04-07T03:29:00;3.60;99.90
54461;DHT22;40371;49.414;11.010;2023-04-07T03:31:27;3.50;99.90
54461;DHT22;40371;49.414;11.010;2023-04-07T03:33:55;3.20;99.90
54461;DHT22;40371;49.414;11.010;2023-04-07T03:36:21;3.40;99.90
54461;DHT22;40371;49.414;11.010;2023-04-07T03:38:47;3.50;99.90
54461;DHT22;40371;49.414;11.010;2023-04-07T03:41:13;3.70;99.90
54461;DHT22;40371;49.414;11.010;2023-04-07T03:43:40;3.20;99.90
54461;DHT22;40371;49.414;11.010;2023-04-07T03:46:06;2.90;99.90
54461;DHT22;40371;49.414;11.010;2023-04-07T03:48:32;3.00;99.90
54461;DHT22;40371;49.414;11.010;2023-04-07T03:51:06;2.90;99.90
54461;DHT22;40371;49.414;11.010;2023-04-07T03:53:33;2.60;99.90
54461;DHT22;40371;49.414;11.010;2023-04-07T03:56:03;2.60;99.90
54461;DHT22;40371;49.414;11.010;2023-04-07T03:58:41;2.50;99.90
54461;DHT22;40371;49.414;11.010;2023-04-07T04:01:11;2.60;99.90
54461;DHT22;40371;49.414;11.010;2023-04-07T04:03:38;2.90;99.90
54461;DHT22;40371;49.414;11.010;2023-04-07T04:06:17;3.20;99.90
54461;DHT22;40371;49.414;11.010;2023-04-07T04:08:42;3.40;99.90
54461;DHT22;40371;49.414;11.010;2023-04-07T04:11:09;3.40;99.90
54461;DHT22;40371;49.414;11.010;2023-04-07T04:13:42;3.20;99.90
54461;DHT22;40371;49.414;11.010;2023-04-07T04:16:08;3.10;99.90
54461;DHT22;40371;49.414;11.010;2023-04-07T04:18:36;3.00;99.90
54461;DHT22;40371;49.414;11.010;2023-04-07T04:21:03;3.20;99.90
54461;DHT22;40371;49.414;11.010;2023-04-07T04:23:29;3.30;99.90
54461;DHT22;40371;49.414;11.010;2023-04-07T04:25:56;3.60;99.90
54461;DHT22;40371;49.414;11.010;2023-04-07T04:28:25;3.30;99.90
54461;DHT22;40371;49.414;11.010;2023-04-07T04:30:51;3.00;99.90
54461;DHT22;40371;49.414;11.010;2023-04-07T04:33:17;2.70;99.90
54461;DHT22;40371;49.414;11.010;2023-04-07T04:35:51;2.50;99.90
54461;DHT22;40371;49.414;11.010;2023-04-07T04:38:18;2.60;99.90
54461;DHT22;40371;49.414;11.010;2023-04-07T04:40:51;2.90;99.90
54461;DHT22;40371;49.414;11.010;2023-04-07T04:43:23;3.00;99.90
54461;DHT22;40371;49.414;11.010;2023-04-07T04:45:49;3.30;99.90
54461;DHT22;40371;49.414;11.010;2023-04-07T04:48:17;3.60;99.90
54461;DHT22;40371;49.414;11.010;2023-04-07T04:50:42;3.70;99.90
54461;DHT22;40371;49.414;11.010;2023-04-07T04:53:11;3.20;99.90
54461;DHT22;40371;49.414;11.010;2023-04-07T04:55:44;2.90;99.90
54461;DHT22;40371;49.414;11.010;2023-04-07T04:58:18;2.90;99.90
54461;DHT22;40371;49.414;11.010;2023-04-07T05:00:47;3.00;99.90
54461;DHT22;40371;49.414;11.010;2023-04-07T05:03:12;3.40;99.90
54461;DHT22;40371;49.414;11.010;2023-04-07T05:05:41;3.80;99.90
54461;DHT22;40371;49.414;11.010;2023-04-07T05:08:09;3.90;99.90
54461;DHT22;40371;49.414;11.010;2023-04-07T05:10:37;3.90;99.90
54461;DHT22;40371;49.414;11.010;2023-04-07T05:13:06;3.70;99.90
54461;DHT22;40371;49.414;11.010;2023-04-07T05:15:32;3.70;99.90
54461;DHT22;40371;49.414;11.010;2023-04-07T05:17:58;3.50;99.90
54461;DHT22;40371;49.414;11.010;2023-04-07T05:20:26;3.40;99.90
54461;DHT22;40371;49.414;11.010;2023-04-07T05:22:51;3.50;99.90
54461;DHT22;40371;49.414;11.010;2023-04-07T05:25:20;3.80;99.90
54461;DHT22;40371;49.414;11.010;2023-04-07T05:27:49;4.10;99.90
54461;DHT22;40371;49.414;11.010;2023-04-07T05:30:15;4.30;99.90
54461;DHT22;40371;49.414;11.010;2023-04-07T05:32:41;4.30;99.90
54461;DHT22;40371;49.414;11.010;2023-04-07T05:35:15;4.00;99.90
54461;DHT22;40371;49.414;11.010;2023-04-07T05:37:48;4.00;99.90
54461;DHT22;40371;49.414;11.010;2023-04-07T05:40:15;4.20;99.90
54461;DHT22;40371;49.414;11.010;2023-04-07T05:42:41;4.00;99.90
54461;DHT22;40371;49.414;11.010;2023-04-07T05:45:08;3.90;99.90
54461;DHT22;40371;49.414;11.010;2023-04-07T05:47:37;4.00;99.90
54461;DHT22;40371;49.414;11.010;2023-04-07T05:50:03;3.70;99.90
54461;DHT22;40371;49.414;11.010;2023-04-07T05:52:31;3.80;99.90
54461;DHT22;40371;49.414;11.010;2023-04-07T05:55:06;4.20;99.90
54461;DHT22;40371;49.414;11.010;2023-04-07T05:57:32;4.40;99.90
54461;DHT22;40371;49.414;11.010;2023-04-07T06:00:00;4.50;99.90
54461;DHT22;40371;49.414;11.010;2023-04-07T06:02:26;5.00;99.90
54461;DHT22;40371;49.414;11.010;2023-04-07T06:04:52;5.00;99.90
54461;DHT22;40371;49.414;11.010;2023-04-07T06:07:19;4.80;99.90
54461;DHT22;40371;49.414;11.010;2023-04-07T06:09:44;4.80;99.90
54461;DHT22;40371;49.414;11.010;2023-04-07T06:12:10;5.20;99.90
54461;DHT22;40371;49.414;11.010;2023-04-07T06:14:37;5.00;99.90
54461;DHT22;40371;49.414;11.010;2023-04-07T06:17:04;4.90;99.90
54461;DHT22;40371;49.414;11.010;2023-04-07T06:19:31;5.00;99.90
54461;DHT22;40371;49.414;11.010;2023-04-07T06:21:59;5.40;99.90
54461;DHT22;40371;49.414;11.010;2023-04-07T06:24:25;5.50;99.90
54461;DHT22;40371;49.414;11.010;2023-04-07T06:26:54;5.60;99.90
54461;DHT22;40371;49.414;11.010;2023-04-07T06:29:21;6.20;99.90
54461;DHT22;40371;49.414;11.010;2023-04-07T06:31:47;6.10;99.90
54461;DHT22;40371;49.414;11.010;2023-04-07T06:34:12;6.30;99.90
54461;DHT22;40371;49.414;11.010;2023-04-07T06:36:38;6.00;99.90
54461;DHT22;40371;49.414;11.010;2023-04-07T06:39:03;6.20;99.90
54461;DHT22;40371;49.414;11.010;2023-04-07T06:41:29;6.60;99.90
54461;DHT22;40371;49.414;11.010;2023-04-07T06:43:56;7.20;99.90
54461;DHT22;40371;49.414;11.010;2023-04-07T06:46:21;7.50;99.90
54461;DHT22;40371;49.414;11.010;2023-04-07T06:48:47;7.60;99.90
54461;DHT22;40371;49.414;11.010;2023-04-07T06:51:12;7.60;99.90
54461;DHT22;40371;49.414;11.010;2023-04-07T06:53:38;7.90;99.90
54461;DHT22;40371;49.414;11.010;2023-04-07T06:56:06;8.00;99.90
54461;DHT22;40371;49.414;11.010;2023-04-07T06:58:32;8.30;99.90
54461;DHT22;40371;49.414;11.010;2023-04-07T07:00:59;8.30;99.90
54461;DHT22;40371;49.414;11.010;2023-04-07T07:03:25;7.90;99.90
54461;DHT22;40371;49.414;11.010;2023-04-07T07:05:57;7.70;99.90
54461;DHT22;40371;49.414;11.010;2023-04-07T07:08:23;8.10;99.90
54461;DHT22;40371;49.414;11.010;2023-04-07T07:10:49;8.30;99.90
54461;DHT22;40371;49.414;11.010;2023-04-07T07:13:15;8.60;99.90
54461;DHT22;40371;49.414;11.010;2023-04-07T07:15:40;8.40;99.90
54461;DHT22;40371;49.414;11.010;2023-04-07T07:18:06;8.40;99.90
54461;DHT22;40371;49.414;11.010;2023-04-07T07:20:32;8.60;99.90
54461;DHT22;40371;49.414;11.010;2023-04-07T07:22:57;8.70;99.90
54461;DHT22;40371;49.414;11.010;2023-04-07T07:25:24;8.90;99.90
54461;DHT22;40371;49.414;11.010;2023-04-07T07:27:51;9.40;99.90
54461;DHT22;40371;49.414;11.010;2023-04-07T07:30:21;9.50;99.20
54461;DHT22;40371;49.414;11.010;2023-04-07T07:32:47;9.80;98.80
54461;DHT22;40371;49.414;11.010;2023-04-07T07:35:13;10.10;97.90
54461;DHT22;40371;49.414;11.010;2023-04-07T07:37:39;10.40;98.20
54461;DHT22;40371;49.414;11.010;2023-04-07T07:40:05;10.60;97.80
54461;DHT22;40371;49.414;11.010;2023-04-07T07:42:31;10.90;97.20
54461;DHT22;40371;49.414;11.010;2023-04-07T07:44:57;11.20;96.70
54461;DHT22;40371;49.414;11.010;2023-04-07T07:47:24;12.10;95.80
54461;DHT22;40371;49.414;11.010;2023-04-07T07:49:49;13.30;92.80
54461;DHT22;40371;49.414;11.010;2023-04-07T07:52:15;14.10;90.40
54461;DHT22;40371;49.414;11.010;2023-04-07T07:54:41;14.00;88.90
54461;DHT22;40371;49.414;11.010;2023-04-07T07:57:06;14.80;87.00
54461;DHT22;40371;49.414;11.010;2023-04-07T07:59:32;14.90;85.20
54461;DHT22;40371;49.414;11.010;2023-04-07T08:01:58;14.10;84.80
54461;DHT22;40371;49.414;11.010;2023-04-07T08:04:23;13.10;87.10
54461;DHT22;40371;49.414;11.010;2023-04-07T08:06:49;12.00;90.30
54461;DHT22;40371;49.414;11.010;2023-04-07T08:09:16;11.90;91.10
54461;DHT22;40371;49.414;11.010;2023-04-07T08:11:42;12.50;90.60
54461;DHT22;40371;49.414;11.010;2023-04-07T08:14:08;11.90;90.40
54461;DHT22;40371;49.414;11.010;2023-04-07T08:16:34;11.70;90.60
54461;DHT22;40371;49.414;11.010;2023-04-07T08:18:59;12.00;89.50
54461;DHT22;40371;49.414;11.010;2023-04-07T08:21:25;12.00;89.00
54461;DHT22;40371;49.414;11.010;2023-04-07T08:23:55;11.80;89.50
54461;DHT22;40371;49.414;11.010;2023-04-07T08:26:21;12.10;90.70
54461;DHT22;40371;49.414;11.010;2023-04-07T08:28:48;12.40;90.00
54461;DHT22;40371;49.414;11.010;2023-04-07T08:35:03;12.00;89.90
54461;DHT22;40371;49.414;11.010;2023-04-07T08:37:30;12.70;87.90
54461;DHT22;40371;49.414;11.010;2023-04-07T08:39:56;13.50;87.00
54461;DHT22;40371;49.414;11.010;2023-04-07T08:42:26;13.60;84.70
54461;DHT22;40371;49.414;11.010;2023-04-07T08:44:55;13.80;82.70
54461;DHT22;40371;49.414;11.010;2023-04-07T08:47:21;13.20;83.10
54461;DHT22;40371;49.414;11.010;2023-04-07T08:49:49;13.10;84.70
54461;DHT22;40371;49.414;11.010;2023-04-07T08:52:21;13.40;83.20
54461;DHT22;40371;49.414;11.010;2023-04-07T08:54:48;13.90;82.70
54461;DHT22;40371;49.414;11.010;2023-04-07T08:57:15;13.30;81.90
54461;DHT22;40371;49.414;11.010;2023-04-07T08:59:41;13.00;83.40
54461;DHT22;40371;49.414;11.010;2023-04-07T09:02:10;12.60;83.80
54461;DHT22;40371;49.414;11.010;2023-04-07T09:04:36;12.50;84.70
54461;DHT22;40371;49.414;11.010;2023-04-07T09:07:01;12.60;84.80
54461;DHT22;40371;49.414;11.010;2023-04-07T09:09:28;13.20;83.60
54461;DHT22;40371;49.414;11.010;2023-04-07T09:11:54;12.80;83.40
54461;DHT22;40371;49.414;11.010;2023-04-07T09:14:20;12.60;83.50
54461;DHT22;40371;49.414;11.010;2023-04-07T09:16:46;12.60;83.60
54461;DHT22;40371;49.414;11.010;2023-04-07T09:19:12;12.70;83.50
54461;DHT22;40371;49.414;11.010;2023-04-07T09:21:48;13.30;82.60
54461;DHT22;40371;49.414;11.010;2023-04-07T09:24:24;13.10;81.40
54461;DHT22;40371;49.414;11.010;2023-04-07T09:27:12;12.90;81.30
54461;DHT22;40371;49.414;11.010;2023-04-07T09:29:39;12.70;82.40
54461;DHT22;40371;49.414;11.010;2023-04-07T09:32:05;13.10;82.00
54461;DHT22;40371;49.414;11.010;2023-04-07T09:34:36;13.60;80.10
54461;DHT22;40371;49.414;11.010;2023-04-07T09:37:03;13.90;78.90
54461;DHT22;40371;49.414;11.010;2023-04-07T09:39:29;13.60;78.90
54461;DHT22;40371;49.414;11.010;2023-04-07T09:41:55;13.50;80.10
54461;DHT22;40371;49.414;11.010;2023-04-07T09:44:22;13.60;80.40
54461;DHT22;40371;49.414;11.010;2023-04-07T09:46:57;13.90;79.20
54461;DHT22;40371;49.414;11.010;2023-04-07T09:49:24;14.00;78.80
54461;DHT22;40371;49.414;11.010;2023-04-07T09:51:56;13.90;78.50
54461;DHT22;40371;49.414;11.010;2023-04-07T09:54:35;14.50;77.70
54461;DHT22;40371;49.414;11.010;2023-04-07T09:57:03;15.30;77.00
54461;DHT22;40371;49.414;11.010;2023-04-07T09:59:30;16.00;74.60
54461;DHT22;40371;49.414;11.010;2023-04-07T10:01:56;16.50;71.90
54461;DHT22;40371;49.414;11.010;2023-04-07T10:04:26;16.80;71.70
54461;DHT22;40371;49.414;11.010;2023-04-07T10:06:52;17.90;69.30
54461;DHT22;40371;49.414;11.010;2023-04-07T10:09:19;17.30;67.60
54461;DHT22;40371;49.414;11.010;2023-04-07T10:11:45;17.70;66.80
54461;DHT22;40371;49.414;11.010;2023-04-07T10:14:12;19.00;64.90
54461;DHT22;40371;49.414;11.010;2023-04-07T10:16:38;19.80;62.40
54461;DHT22;40371;49.414;11.010;2023-04-07T10:19:04;19.70;60.80
54461;DHT22;40371;49.414;11.010;2023-04-07T10:21:33;19.70;60.60
54461;DHT22;40371;49.414;11.010;2023-04-07T10:26:46;21.10;58.10
54461;DHT22;40371;49.414;11.010;2023-04-07T10:29:14;20.60;57.20
54461;DHT22;40371;49.414;11.010;2023-04-07T10:31:40;22.00;56.00
54461;DHT22;40371;49.414;11.010;2023-04-07T10:34:06;22.50;54.60
54461;DHT22;40371;49.414;11.010;2023-04-07T10:36:31;22.70;53.90
54461;DHT22;40371;49.414;11.010;2023-04-07T10:41:37;24.10;52.70
54461;DHT22;40371;49.414;11.010;2023-04-07T10:44:04;26.10;51.50
54461;DHT22;40371;49.414;11.010;2023-04-07T10:49:17;28.60;44.80
54461;DHT22;40371;49.414;11.010;2023-04-07T10:51:43;26.20;46.10
54461;DHT22;40371;49.414;11.010;2023-04-07T10:54:22;25.60;46.50
54461;DHT22;40371;49.414;11.010;2023-04-07T10:59:31;26.30;45.90
54461;DHT22;40371;49.414;11.010;2023-04-07T11:04:51;28.80;43.50
54461;DHT22;40371;49.414;11.010;2023-04-07T11:07:17;30.10;41.80
54461;DHT22;40371;49.414;11.010;2023-04-07T11:09:44;28.70;42.50
54461;DHT22;40371;49.414;11.010;2023-04-07T11:12:22;26.80;42.20
54461;DHT22;40371;49.414;11.010;2023-04-07T11:14:48;23.30;45.70
54461;DHT22;40371;49.414;11.010;2023-04-07T11:17:14;22.50;47.50
54461;DHT22;40371;49.414;11.010;2023-04-07T11:19:52;22.40;48.80
54461;DHT22;40371;49.414;11.010;2023-04-07T11:22:18;20.30;50.40
54461;DHT22;40371;49.414;11.010;2023-04-07T11:24:45;19.90;50.70
54461;DHT22;40371;49.414;11.010;2023-04-07T11:27:12;19.50;52.50
54461;DHT22;40371;49.414;11.010;2023-04-07T11:29:38;20.00;51.80
54461;DHT22;40371;49.414;11.010;2023-04-07T11:32:04;22.50;51.30
54461;DHT22;40371;49.414;11.010;2023-04-07T11:34:31;23.30;48.80
54461;DHT22;40371;49.414;11.010;2023-04-07T11:36:58;20.70;49.70
54461;DHT22;40371;49.414;11.010;2023-04-07T11:39:42;19.60;52.00
54461;DHT22;40371;49.414;11.010;2023-04-07T11:42:10;18.60;53.00
54461;DHT22;40371;49.414;11.010;2023-04-07T11:44:44;17.20;55.50
54461;DHT22;40371;49.414;11.010;2023-04-07T11:47:10;18.20;56.30
54461;DHT22;40371;49.414;11.010;2023-04-07T11:49:44;19.70;54.80
54461;DHT22;40371;49.414;11.010;2023-04-07T11:52:10;20.60;53.50
54461;DHT22;40371;49.414;11.010;2023-04-07T11:54:44;21.90;51.70
54461;DHT22;40371;49.414;11.010;2023-04-07T11:57:26;21.70;50.40
54461;DHT22;40371;49.414;11.010;2023-04-07T12:00:08;23.40;50.00
54461;DHT22;40371;49.414;11.010;2023-04-07T12:02:35;20.80;50.30
54461;DHT22;40371;49.414;11.010;2023-04-07T12:05:01;19.40;52.20
54461;DHT22;40371;49.414;11.010;2023-04-07T12:07:27;21.50;51.60
54461;DHT22;40371;49.414;11.010;2023-04-07T12:09:53;22.70;49.50
54461;DHT22;40371;49.414;11.010;2023-04-07T12:12:29;22.70;48.80
54461;DHT22;40371;49.414;11.010;2023-04-07T12:14:55;22.30;49.90
54461;DHT22;40371;49.414;11.010;2023-04-07T12:17:25;21.40;50.10
54461;DHT22;40371;49.414;11.010;2023-04-07T12:19:51;18.80;52.60
54461;DHT22;40371;49.414;11.010;2023-04-07T12:22:18;19.40;51.70
54461;DHT22;40371;49.414;11.010;2023-04-07T12:24:44;18.00;54.30
54461;DHT22;40371;49.414;11.010;2023-04-07T12:27:10;18.90;54.40
54461;DHT22;40371;49.414;11.010;2023-04-07T12:29:35;19.50;53.60
54461;DHT22;40371;49.414;11.010;2023-04-07T12:32:04;20.80;51.70
54461;DHT22;40371;49.414;11.010;2023-04-07T12:34:29;19.70;53.10
54461;DHT22;40371;49.414;11.010;2023-04-07T12:36:55;20.20;52.20
54461;DHT22;40371;49.414;11.010;2023-04-07T12:39:21;18.90;52.90
54461;DHT22;40371;49.414;11.010;2023-04-07T12:41:46;19.10;53.00
54461;DHT22;40371;49.414;11.010;2023-04-07T12:44:14;19.20;53.70
54461;DHT22;40371;49.414;11.010;2023-04-07T12:46:40;19.50;53.10
54461;DHT22;40371;49.414;11.010;2023-04-07T12:49:06;20.30;52.60
54461;DHT22;40371;49.414;11.010;2023-04-07T12:51:31;19.70;52.60
54461;DHT22;40371;49.414;11.010;2023-04-07T12:54:00;19.70;52.90
54461;DHT22;40371;49.414;11.010;2023-04-07T12:56:26;19.80;53.30
54461;DHT22;40371;49.414;11.010;2023-04-07T12:58:53;19.00;53.20
54461;DHT22;40371;49.414;11.010;2023-04-07T13:01:19;18.40;55.20
54461;DHT22;40371;49.414;11.010;2023-04-07T13:03:45;19.60;54.70
54461;DHT22;40371;49.414;11.010;2023-04-07T13:06:13;19.40;53.60
54461;DHT22;40371;49.414;11.010;2023-04-07T13:08:40;19.10;53.40
54461;DHT22;40371;49.414;11.010;2023-04-07T13:11:06;19.70;53.50
54461;DHT22;40371;49.414;11.010;2023-04-07T13:13:32;20.20;56.80
54461;DHT22;40371;49.414;11.010;2023-04-07T13:15:57;20.40;54.90
54461;DHT22;40371;49.414;11.010;2023-04-07T13:18:23;20.90;56.50
54461;DHT22;40371;49.414;11.010;2023-04-07T13:20:49;18.50;56.50
54461;DHT22;40371;49.414;11.010;2023-04-07T13:23:15;17.90;58.80
54461;DHT22;40371;49.414;11.010;2023-04-07T13:25:41;18.10;60.60
54461;DHT22;40371;49.414;11.010;2023-04-07T13:28:07;18.30;59.30
54461;DHT22;40371;49.414;11.010;2023-04-07T13:30:32;17.40;61.40
54461;DHT22;40371;49.414;11.010;2023-04-07T13:32:58;17.40;60.90
54461;DHT22;40371;49.414;11.010;2023-04-07T13:35:24;17.60;61.60
54461;DHT22;40371;49.414;11.010;2023-04-07T13:37:50;18.20;61.00
54461;DHT22;40371;49.414;11.010;2023-04-07T13:40:15;17.60;60.80
54461;DHT22;40371;49.414;11.010;2023-04-07T13:42:41;16.90;62.00
54461;DHT22;40371;49.414;11.010;2023-04-07T13:45:07;15.90;63.40
54461;DHT22;40371;49.414;11.010;2023-04-07T13:47:33;15.60;64.90
54461;DHT22;40371;49.414;11.010;2023-04-07T13:50:00;15.40;66.10
54461;DHT22;40371;49.414;11.010;2023-04-07T13:52:25;15.70;66.90
54461;DHT22;40371;49.414;11.010;2023-04-07T13:54:52;15.80;68.10
54461;DHT22;40371;49.414;11.010;2023-04-07T13:57:18;15.90;66.80
54461;DHT22;40371;49.414;11.010;2023-04-07T13:59:47;15.60;67.60
54461;DHT22;40371;49.414;11.010;2023-04-07T14:02:13;15.40;68.40
54461;DHT22;40371;49.414;11.010;2023-04-07T14:04:39;15.30;68.60
54461;DHT22;40371;49.414;11.010;2023-04-07T14:07:05;14.70;68.90
54461;DHT22;40371;49.414;11.010;2023-04-07T14:09:31;14.70;70.90
54461;DHT22;40371;49.414;11.010;2023-04-07T14:11:56;14.60;71.20
54461;DHT22;40371;49.414;11.010;2023-04-07T14:14:22;14.50;71.90
54461;DHT22;40371;49.414;11.010;2023-04-07T14:16:48;14.30;71.70
54461;DHT22;40371;49.414;11.010;2023-04-07T14:19:21;14.90;72.20
54461;DHT22;40371;49.414;11.010;2023-04-07T14:21:48;15.00;71.50
54461;DHT22;40371;49.414;11.010;2023-04-07T14:24:13;15.20;70.60
54461;DHT22;40371;49.414;11.010;2023-04-07T14:26:39;15.30;70.10
54461;DHT22;40371;49.414;11.010;2023-04-07T14:29:05;15.40;69.70
54461;DHT22;40371;49.414;11.010;2023-04-07T14:31:30;15.40;69.50
54461;DHT22;40371;49.414;11.010;2023-04-07T14:33:56;15.30;70.10
54461;DHT22;40371;49.414;11.010;2023-04-07T14:36:22;15.30;70.60
54461;DHT22;40371;49.414;11.010;2023-04-07T14:38:48;15.40;70.60
54461;DHT22;40371;49.414;11.010;2023-04-07T14:41:15;15.50;70.20
54461;DHT22;40371;49.414;11.010;2023-04-07T14:43:41;15.50;69.10
54461;DHT22;40371;49.414;11.010;2023-04-07T14:46:07;15.60;69.10
54461;DHT22;40371;49.414;11.010;2023-04-07T14:48:32;15.50;69.30
54461;DHT22;40371;49.414;11.010;2023-04-07T14:50:58;15.10;69.70
54461;DHT22;40371;49.414;11.010;2023-04-07T14:53:24;15.00;70.60
54461;DHT22;40371;49.414;11.010;2023-04-07T14:55:49;15.10;70.90
54461;DHT22;40371;49.414;11.010;2023-04-07T14:58:15;15.30;70.50
54461;DHT22;40371;49.414;11.010;2023-04-07T15:00:41;14.90;70.30
54461;DHT22;40371;49.414;11.010;2023-04-07T15:03:06;14.70;71.10
54461;DHT22;40371;49.414;11.010;2023-04-07T15:05:32;14.60;71.20
54461;DHT22;40371;49.414;11.010;2023-04-07T15:07:57;14.50;71.80
54461;DHT22;40371;49.414;11.010;2023-04-07T15:10:23;14.30;71.70
54461;DHT22;40371;49.414;11.010;2023-04-07T15:12:49;14.30;72.70
54461;DHT22;40371;49.414;11.010;2023-04-07T15:15:15;14.40;73.10
54461;DHT22;40371;49.414;11.010;2023-04-07T15:17:41;14.30;72.50
54461;DHT22;40371;49.414;11.010;2023-04-07T15:20:07;14.10;72.80
54461;DHT22;40371;49.414;11.010;2023-04-07T15:22:34;14.00;73.60
54461;DHT22;40371;49.414;11.010;2023-04-07T15:25:00;13.90;74.80
54461;DHT22;40371;49.414;11.010;2023-04-07T15:27:26;13.90;74.80
54461;DHT22;40371;49.414;11.010;2023-04-07T15:29:51;13.90;75.60
54461;DHT22;40371;49.414;11.010;2023-04-07T15:32:17;13.90;75.90
54461;DHT22;40371;49.414;11.010;2023-04-07T15:34:43;13.70;76.10
54461;DHT22;40371;49.414;11.010;2023-04-07T15:37:08;13.70;76.60
54461;DHT22;40371;49.414;11.010;2023-04-07T15:39:34;13.60;77.00
54461;DHT22;40371;49.414;11.010;2023-04-07T15:42:00;13.50;77.30
54461;DHT22;40371;49.414;11.010;2023-04-07T15:44:26;13.50;77.70